createdAt,value
2019-05-25T00:01:46.176Z,12.25
2019-05-25T00:04:18.826Z,8.30
2019-05-25T00:06:51.374Z,12.55
2019-05-25T00:09:23.905Z,12.35
2019-05-25T00:11:57.082Z,9.50
2019-05-25T00:14:29.756Z,10.20
2019-05-25T00:17:03.203Z,12.15
2019-05-25T00:19:35.884Z,11.83
2019-05-25T00:22:08.415Z,9.60
2019-05-25T00:24:40.936Z,9.25
2019-05-25T00:27:13.415Z,10.95
2019-05-25T00:29:45.756Z,10.48
2019-05-25T00:32:18.410Z,10.38
2019-05-25T00:34:51.125Z,9.00
2019-05-25T00:37:23.656Z,9.73
2019-05-25T00:39:56.117Z,11.80
2019-05-25T00:42:28.434Z,14.45
2019-05-25T00:45:00.995Z,9.25
2019-05-25T00:47:33.565Z,9.63
2019-05-25T00:50:06.445Z,10.10
2019-05-25T00:52:39.215Z,8.78
2019-05-25T00:55:12.048Z,9.45
2019-05-25T00:57:44.443Z,7.42
2019-05-25T01:00:17.010Z,9.30
2019-05-25T01:02:49.524Z,8.00
2019-05-25T01:05:22.110Z,9.70
2019-05-25T01:07:54.626Z,10.60
2019-05-25T01:10:28.535Z,9.10
2019-05-25T01:13:01.457Z,9.98
2019-05-25T01:15:34.056Z,9.28
2019-05-25T01:18:06.665Z,8.60
2019-05-25T01:20:40.096Z,10.98
2019-05-25T01:23:12.870Z,9.53
2019-05-25T01:25:45.377Z,11.15
2019-05-25T01:28:17.849Z,10.93
2019-05-25T01:30:50.571Z,13.58
2019-05-25T01:33:23.225Z,13.48
2019-05-25T01:35:55.635Z,12.28
2019-05-25T01:38:28.075Z,9.65
2019-05-25T01:41:00.595Z,10.85
2019-05-25T01:43:33.343Z,11.75
2019-05-25T01:46:05.886Z,11.65
2019-05-25T01:48:38.447Z,13.03
2019-05-25T01:51:10.967Z,12.20
2019-05-25T01:53:43.605Z,10.53
2019-05-25T01:56:16.070Z,9.93
2019-05-25T01:58:48.675Z,10.82
2019-05-25T02:01:21.370Z,13.25
2019-05-25T02:03:53.660Z,12.40
2019-05-25T02:06:26.525Z,13.53
2019-05-25T02:08:59.173Z,12.63
2019-05-25T02:11:31.615Z,12.53
2019-05-25T02:14:04.296Z,11.08
2019-05-25T02:16:36.795Z,10.68
2019-05-25T02:19:09.497Z,10.23
2019-05-25T02:21:42.076Z,14.55
2019-05-25T02:24:14.765Z,10.38
2019-05-25T02:26:47.266Z,9.33
2019-05-25T02:29:19.876Z,8.55
2019-05-25T02:31:52.607Z,9.75
2019-05-25T02:34:25.355Z,13.83
2019-05-25T02:36:57.865Z,10.80
2019-05-25T02:39:30.465Z,8.63
2019-05-25T02:42:03.038Z,11.50
2019-05-25T02:44:35.677Z,10.63
2019-05-25T02:47:08.346Z,15.60
2019-05-25T02:49:42.523Z,9.65
2019-05-25T02:52:15.215Z,10.53
2019-05-25T02:54:47.988Z,11.38
2019-05-25T02:57:20.637Z,10.78
2019-05-25T02:59:53.605Z,12.95
2019-05-25T03:02:28.354Z,9.55
2019-05-25T03:05:00.787Z,10.88
2019-05-25T03:07:33.728Z,13.08
2019-05-25T03:10:07.337Z,14.15
2019-05-25T03:12:40.909Z,10.25
2019-05-25T03:15:14.228Z,13.78
2019-05-25T03:17:46.946Z,11.10
2019-05-25T03:20:19.686Z,15.08
2019-05-25T03:22:52.359Z,13.78
2019-05-25T03:25:25.155Z,15.88
2019-05-25T03:27:58.565Z,11.05
2019-05-25T03:30:35.767Z,10.95
2019-05-25T03:33:08.515Z,13.22
2019-05-25T03:35:41.476Z,13.45
2019-05-25T03:38:14.147Z,11.95
2019-05-25T03:40:46.846Z,12.78
2019-05-25T03:43:19.436Z,14.43
2019-05-25T03:45:52.766Z,14.23
2019-05-25T03:48:25.425Z,11.65
2019-05-25T03:50:59.397Z,13.78
2019-05-25T03:53:33.283Z,17.00
2019-05-25T03:56:06.586Z,11.45
2019-05-25T03:58:39.466Z,13.25
2019-05-25T04:01:12.565Z,14.20
2019-05-25T04:03:45.413Z,16.48
2019-05-25T04:06:17.935Z,13.20
2019-05-25T04:08:50.868Z,16.90
2019-05-25T04:11:23.405Z,16.23
2019-05-25T04:13:56.814Z,13.48
2019-05-25T04:16:29.646Z,16.80
2019-05-25T04:19:04.006Z,12.00
2019-05-25T04:21:36.719Z,18.27
2019-05-25T04:24:12.497Z,15.38
2019-05-25T04:26:45.318Z,13.10
2019-05-25T04:29:18.158Z,15.10
2019-05-25T04:31:50.936Z,12.45
2019-05-25T04:34:24.046Z,13.20
2019-05-25T04:36:56.856Z,16.95
2019-05-25T04:39:29.379Z,13.20
2019-05-25T04:42:02.046Z,17.27
2019-05-25T04:44:37.118Z,13.85
2019-05-25T04:47:24.352Z,16.40
2019-05-25T04:49:44.686Z,15.48
2019-05-25T04:52:19.975Z,15.18
2019-05-25T04:54:54.058Z,13.28
2019-05-25T04:57:26.895Z,13.78
2019-05-25T04:59:59.435Z,12.70
2019-05-25T05:02:32.126Z,13.93
2019-05-25T05:05:05.096Z,13.10
2019-05-25T05:07:37.727Z,11.83
2019-05-25T05:10:11.216Z,10.08
2019-05-25T05:12:43.996Z,12.90
2019-05-25T05:15:16.583Z,15.50
2019-05-25T05:17:49.385Z,12.00
2019-05-25T05:20:22.037Z,11.80
2019-05-25T05:22:54.655Z,16.02
2019-05-25T05:25:30.235Z,15.45
2019-05-25T05:28:03.005Z,10.40
2019-05-25T05:30:37.100Z,12.65
2019-05-25T05:33:09.737Z,13.32
2019-05-25T05:35:43.158Z,11.63
2019-05-25T05:38:16.556Z,13.18
2019-05-25T05:40:49.635Z,15.13
2019-05-25T05:43:23.425Z,13.20
2019-05-25T05:45:58.215Z,10.00
2019-05-25T05:48:33.482Z,12.03
2019-05-25T05:51:10.355Z,16.50
2019-05-25T05:53:44.360Z,14.23
2019-05-25T05:56:18.195Z,14.38
2019-05-25T05:58:51.625Z,11.22
2019-05-25T06:01:24.438Z,10.95
2019-05-25T06:03:57.278Z,15.23
2019-05-25T06:06:30.126Z,10.55
2019-05-25T06:09:04.333Z,8.75
2019-05-25T06:11:37.290Z,13.65
2019-05-25T06:14:10.196Z,9.75
2019-05-25T06:16:42.915Z,10.95
2019-05-25T06:19:15.585Z,9.48
2019-05-25T06:21:48.167Z,8.13
2019-05-25T06:24:20.936Z,10.08
2019-05-25T06:26:54.015Z,6.92
2019-05-25T06:29:26.966Z,9.65
2019-05-25T06:31:59.916Z,8.40
2019-05-25T06:34:32.976Z,7.97
2019-05-25T06:37:06.035Z,8.38
2019-05-25T06:39:40.375Z,10.23
2019-05-25T06:42:13.157Z,10.03
2019-05-25T06:44:45.771Z,7.30
2019-05-25T06:47:18.860Z,7.42
2019-05-25T06:49:51.335Z,9.88
2019-05-25T06:52:24.105Z,6.55
2019-05-25T06:54:57.157Z,6.22
2019-05-25T06:57:42.461Z,7.97
2019-05-25T07:00:05.059Z,5.83
2019-05-25T07:02:38.264Z,8.05
2019-05-25T07:05:11.236Z,7.70
2019-05-25T07:07:43.995Z,5.17
2019-05-25T07:10:18.135Z,7.80
2019-05-25T07:12:51.184Z,4.37
2019-05-25T07:15:24.124Z,5.60
2019-05-25T07:17:56.755Z,3.47
2019-05-25T07:20:29.356Z,3.95
2019-05-25T07:23:02.489Z,4.47
2019-05-25T07:25:35.105Z,3.60
2019-05-25T07:28:08.407Z,5.28
2019-05-25T07:30:41.565Z,5.22
2019-05-25T07:33:14.453Z,7.03
2019-05-25T07:35:47.179Z,5.12
2019-05-25T07:38:20.541Z,5.35
2019-05-25T07:40:56.595Z,9.08
2019-05-25T07:43:29.373Z,4.67
2019-05-25T07:46:03.647Z,6.10
2019-05-25T07:48:36.733Z,7.45
2019-05-25T07:51:09.366Z,5.20
2019-05-25T07:53:42.106Z,6.40
2019-05-25T07:56:16.512Z,5.25
2019-05-25T07:58:49.874Z,5.55
2019-05-25T08:01:22.775Z,7.28
2019-05-25T08:03:55.726Z,4.87
2019-05-25T08:06:28.405Z,4.55
2019-05-25T08:09:01.726Z,3.55
2019-05-25T08:11:35.605Z,4.50
2019-05-25T08:14:08.766Z,3.80
2019-05-25T08:16:42.016Z,6.40
2019-05-25T08:19:15.058Z,6.53
2019-05-25T08:21:47.715Z,6.97
2019-05-25T08:24:20.636Z,5.75
2019-05-25T08:26:53.408Z,4.25
2019-05-25T08:29:26.200Z,7.70
2019-05-25T08:31:59.195Z,4.40
2019-05-25T08:34:32.095Z,3.45
2019-05-25T08:37:04.987Z,3.85
2019-05-25T08:39:38.206Z,6.80
2019-05-25T08:42:11.955Z,7.00
2019-05-25T08:44:46.035Z,3.95
2019-05-25T08:47:19.665Z,6.67
2019-05-25T08:49:52.210Z,3.45
2019-05-25T08:52:25.048Z,5.87
2019-05-25T08:54:57.788Z,3.77
2019-05-25T08:57:30.793Z,3.10
2019-05-25T09:00:03.402Z,7.30
2019-05-25T09:02:36.358Z,2.58
2019-05-25T09:05:09.685Z,3.25
2019-05-25T09:07:42.126Z,6.35
2019-05-25T09:10:14.809Z,3.50
2019-05-25T09:12:47.239Z,3.60
2019-05-25T09:15:20.556Z,4.20
2019-05-25T09:17:55.179Z,6.90
2019-05-25T09:20:28.016Z,5.12
2019-05-25T09:23:00.655Z,3.47
2019-05-25T09:25:33.168Z,2.58
2019-05-25T09:28:05.729Z,4.05
2019-05-25T09:30:38.367Z,4.08
2019-05-25T09:33:11.560Z,5.50
2019-05-25T09:35:44.177Z,8.63
2019-05-25T09:38:17.200Z,8.05
2019-05-25T09:40:49.771Z,18.87
2019-05-25T09:43:22.427Z,7.92
2019-05-25T09:45:55.259Z,10.10
2019-05-25T09:48:27.932Z,7.00
2019-05-25T09:51:00.697Z,11.05
2019-05-25T09:53:33.396Z,6.47
2019-05-25T09:56:05.999Z,5.55
2019-05-25T09:58:38.435Z,4.33
2019-05-25T10:01:10.999Z,3.70
2019-05-25T10:03:44.046Z,3.60
2019-05-25T10:06:16.781Z,3.92
2019-05-25T10:08:52.375Z,4.67
2019-05-25T10:11:25.803Z,2.40
2019-05-25T10:13:58.905Z,5.37
2019-05-25T10:16:31.306Z,4.58
2019-05-25T10:19:04.026Z,2.92
2019-05-25T10:21:36.706Z,3.50
2019-05-25T10:24:09.275Z,5.30
2019-05-25T10:26:41.761Z,6.20
2019-05-25T10:29:14.258Z,3.30
2019-05-25T10:31:46.806Z,4.30
2019-05-25T10:34:19.426Z,4.67
2019-05-25T10:36:51.986Z,7.67
2019-05-25T10:39:24.745Z,3.35
2019-05-25T10:41:58.824Z,2.87
2019-05-25T10:44:32.373Z,5.37
2019-05-25T10:47:04.955Z,2.17
2019-05-25T10:49:37.518Z,1.72
2019-05-25T10:52:10.065Z,3.37
2019-05-25T10:54:42.576Z,3.25
2019-05-25T10:57:15.223Z,5.67
2019-05-25T10:59:52.813Z,4.85
2019-05-25T11:02:22.568Z,3.60
2019-05-25T11:04:55.673Z,5.08
2019-05-25T11:07:28.270Z,4.80
2019-05-25T11:10:00.685Z,7.87
2019-05-25T11:12:33.296Z,6.53
2019-05-25T11:15:05.956Z,3.27
2019-05-25T11:17:38.742Z,2.33
2019-05-25T11:20:13.526Z,5.92
2019-05-25T11:22:46.135Z,3.17
2019-05-25T11:25:19.861Z,4.65
2019-05-25T11:27:53.276Z,5.60
2019-05-25T11:30:26.006Z,5.08
2019-05-25T11:32:58.805Z,4.25
2019-05-25T11:35:31.290Z,4.22
2019-05-25T11:38:03.867Z,2.47
2019-05-25T11:40:36.344Z,3.25
2019-05-25T11:43:08.939Z,3.33
2019-05-25T11:45:45.154Z,3.45
2019-05-25T11:48:15.657Z,2.83
2019-05-25T11:50:48.755Z,5.30
2019-05-25T11:53:21.296Z,3.77
2019-05-25T11:55:53.816Z,6.65
2019-05-25T11:58:26.395Z,4.78
2019-05-25T12:00:59.075Z,5.80
2019-05-25T12:03:31.655Z,4.87
2019-05-25T12:06:04.278Z,9.03
2019-05-25T12:08:37.755Z,6.33
2019-05-25T12:11:10.535Z,4.35
2019-05-25T12:13:43.047Z,3.62
2019-05-25T12:16:15.499Z,4.00
2019-05-25T12:18:48.113Z,4.95
2019-05-25T12:21:21.085Z,3.72
2019-05-25T12:23:53.659Z,3.20
2019-05-25T12:26:26.706Z,3.42
2019-05-25T12:28:59.246Z,4.85
2019-05-25T12:31:31.705Z,3.17
2019-05-25T12:34:04.387Z,4.87
2019-05-25T12:36:37.019Z,2.90
2019-05-25T12:39:09.766Z,3.80
2019-05-25T12:41:42.547Z,4.47
2019-05-25T12:44:15.547Z,4.17
2019-05-25T12:46:50.025Z,6.75
2019-05-25T12:49:22.527Z,6.83
2019-05-25T12:51:55.216Z,4.55
2019-05-25T12:54:27.985Z,4.58
2019-05-25T12:57:02.851Z,2.60
2019-05-25T12:59:35.179Z,5.05
2019-05-25T13:02:07.918Z,6.47
2019-05-25T13:04:40.801Z,6.95
2019-05-25T13:07:13.267Z,9.15
2019-05-25T13:09:45.848Z,4.53
2019-05-25T13:12:18.635Z,6.65
2019-05-25T13:14:51.125Z,3.12
2019-05-25T13:17:23.994Z,4.05
2019-05-25T13:19:56.710Z,4.78
2019-05-25T13:22:30.686Z,5.70
2019-05-25T13:25:03.316Z,2.65
2019-05-25T13:27:36.016Z,5.47
2019-05-25T13:30:09.065Z,4.12
2019-05-25T13:32:41.996Z,3.55
2019-05-25T13:35:15.105Z,5.30
2019-05-25T13:37:49.265Z,4.75
2019-05-25T13:40:21.826Z,2.83
2019-05-25T13:42:54.393Z,3.72
2019-05-25T13:45:26.925Z,2.65
2019-05-25T13:47:59.660Z,3.15
2019-05-25T13:50:32.115Z,3.10
2019-05-25T13:53:04.805Z,3.72
2019-05-25T13:55:37.337Z,5.12
2019-05-25T13:58:10.175Z,4.37
2019-05-25T14:00:42.937Z,2.08
2019-05-25T14:03:15.615Z,3.95
2019-05-25T14:05:48.355Z,4.25
2019-05-25T14:08:20.785Z,4.03
2019-05-25T14:10:53.245Z,5.05
2019-05-25T14:13:26.105Z,4.72
2019-05-25T14:16:07.269Z,8.10
2019-05-25T14:18:33.086Z,3.70
2019-05-25T14:21:05.773Z,3.62
2019-05-25T14:23:38.527Z,6.95
2019-05-25T14:26:10.995Z,4.08
2019-05-25T14:28:43.457Z,4.22
2019-05-25T14:31:16.146Z,4.72
2019-05-25T14:33:48.785Z,3.22
2019-05-25T14:36:21.975Z,5.00
2019-05-25T14:38:55.606Z,6.10
2019-05-25T14:41:29.875Z,3.98
2019-05-25T14:44:02.826Z,4.97
2019-05-25T14:46:35.443Z,4.62
2019-05-25T14:49:08.204Z,3.50
2019-05-25T14:51:42.086Z,3.00
2019-05-25T14:54:14.585Z,5.75
2019-05-25T14:56:47.112Z,7.33
2019-05-25T14:59:19.445Z,7.50
2019-05-25T15:02:01.982Z,7.60
2019-05-25T15:04:26.294Z,5.12
2019-05-25T15:06:59.704Z,5.70
2019-05-25T15:09:32.349Z,4.97
2019-05-25T15:12:04.866Z,6.97
2019-05-25T15:14:37.717Z,5.15
2019-05-25T15:17:10.178Z,7.25
2019-05-25T15:19:42.727Z,5.67
2019-05-25T15:22:15.452Z,6.62
2019-05-25T15:24:48.377Z,8.93
2019-05-25T15:27:21.865Z,7.40
2019-05-25T15:29:54.295Z,19.30
2019-05-25T15:32:27.835Z,7.05
2019-05-25T15:35:00.968Z,7.22
2019-05-25T15:37:33.837Z,5.67
2019-05-25T15:40:07.107Z,6.58
2019-05-25T15:42:39.648Z,15.80
2019-05-25T15:45:14.326Z,4.92
2019-05-25T15:47:46.706Z,8.33
2019-05-25T15:50:19.651Z,5.50
2019-05-25T15:52:52.202Z,8.65
2019-05-25T15:55:24.645Z,7.45
2019-05-25T15:57:57.225Z,6.37
2019-05-25T16:00:49.265Z,10.03
2019-05-25T16:03:22.377Z,4.70
2019-05-25T16:05:54.955Z,5.70
2019-05-25T16:08:27.765Z,7.10
2019-05-25T16:11:00.508Z,6.70
2019-05-25T16:13:33.089Z,11.20
2019-05-25T16:16:06.294Z,6.70
2019-05-25T16:18:39.716Z,6.53
2019-05-25T16:21:12.307Z,7.37
2019-05-25T16:23:44.945Z,6.10
2019-05-25T16:26:17.555Z,6.80
2019-05-25T16:28:51.156Z,5.60
2019-05-25T16:31:23.845Z,6.75
2019-05-25T16:33:57.033Z,10.28
2019-05-25T16:36:29.596Z,7.72
2019-05-25T16:39:03.816Z,8.83
2019-05-25T16:41:38.836Z,8.28
2019-05-25T16:44:12.124Z,9.50
2019-05-25T16:46:44.736Z,6.15
2019-05-25T16:49:17.275Z,7.40
2019-05-25T16:51:49.995Z,9.48
2019-05-25T16:54:22.634Z,8.60
2019-05-25T16:56:55.317Z,7.37
2019-05-25T16:59:27.916Z,5.42
2019-05-25T17:02:00.518Z,9.85
2019-05-25T17:04:33.026Z,12.78
2019-05-25T17:07:05.595Z,5.70
2019-05-25T17:09:38.360Z,8.58
2019-05-25T17:12:11.815Z,7.17
2019-05-25T17:14:44.531Z,7.97
2019-05-25T17:17:17.133Z,19.92
2019-05-25T17:19:49.925Z,16.02
2019-05-25T17:22:22.455Z,7.15
2019-05-25T17:24:59.443Z,6.95
2019-05-25T17:27:30.928Z,6.08
2019-05-25T17:30:05.885Z,6.47
2019-05-25T17:32:40.285Z,5.83
2019-05-25T17:35:12.973Z,9.03
2019-05-25T17:37:45.825Z,5.15
2019-05-25T17:40:18.297Z,5.45
2019-05-25T17:42:51.235Z,7.30
2019-05-25T17:45:25.403Z,5.22
2019-05-25T17:48:01.527Z,6.30
2019-05-25T17:50:34.493Z,6.30
2019-05-25T17:53:07.226Z,8.20
2019-05-25T17:55:39.975Z,10.55
2019-05-25T17:58:13.355Z,7.72
2019-05-25T18:00:50.013Z,7.08
2019-05-25T18:03:23.046Z,8.63
2019-05-25T18:05:55.777Z,7.00
2019-05-25T18:08:31.440Z,5.65
2019-05-25T18:11:04.219Z,10.85
2019-05-25T18:13:38.175Z,6.80
2019-05-25T18:16:18.926Z,8.83
2019-05-25T18:21:27.035Z,6.87
2019-05-25T18:24:00.756Z,7.97
2019-05-25T18:26:35.327Z,4.85
2019-05-25T18:29:08.254Z,6.25
2019-05-25T18:31:40.808Z,7.47
2019-05-25T18:34:21.620Z,9.40
2019-05-25T18:36:47.566Z,5.58
2019-05-25T18:39:20.136Z,5.72
2019-05-25T18:41:52.618Z,3.62
2019-05-25T18:44:27.406Z,5.90
2019-05-25T18:47:00.555Z,4.87
2019-05-25T18:49:41.486Z,6.65
2019-05-25T18:52:14.646Z,6.83
2019-05-25T18:54:47.303Z,6.87
2019-05-25T18:57:22.825Z,9.30
2019-05-25T18:59:56.066Z,5.35
2019-05-25T19:02:31.268Z,8.33
2019-05-25T19:05:05.598Z,8.95
2019-05-25T19:07:38.376Z,9.60
2019-05-25T19:10:11.815Z,23.40
2019-05-25T19:12:44.945Z,92.85
2019-05-25T19:15:18.044Z,64.82
2019-05-25T19:17:50.866Z,39.75
2019-05-25T19:20:24.676Z,29.02
2019-05-25T19:23:00.615Z,36.20
2019-05-25T19:25:34.485Z,18.07
2019-05-25T19:28:07.442Z,15.72
2019-05-25T19:30:41.557Z,14.60
2019-05-25T19:33:17.825Z,14.10
2019-05-25T19:35:54.404Z,20.32
2019-05-25T19:38:35.045Z,16.80
2019-05-25T19:41:07.706Z,18.98
2019-05-25T19:43:40.266Z,17.30
2019-05-25T19:46:13.045Z,15.30
2019-05-25T19:48:45.815Z,13.45
2019-05-25T19:51:18.836Z,16.85
2019-05-25T19:53:51.485Z,18.12
2019-05-25T19:56:24.046Z,18.10
2019-05-25T19:58:56.795Z,17.15
2019-05-25T20:01:29.205Z,12.90
2019-05-25T20:04:01.857Z,6.00
2019-05-25T20:06:34.320Z,7.35
2019-05-25T20:09:08.688Z,6.42
2019-05-25T20:11:43.546Z,6.55
2019-05-25T20:14:21.575Z,7.33
2019-05-25T20:16:56.627Z,9.20
2019-05-25T20:19:34.015Z,5.97
2019-05-25T20:22:12.394Z,6.60
2019-05-25T20:24:47.299Z,7.25
2019-05-25T20:27:21.271Z,6.25
2019-05-25T20:29:54.103Z,7.70
2019-05-25T20:34:48.876Z,10.58
2019-05-25T20:37:23.137Z,9.38
2019-05-25T20:39:55.915Z,6.47
2019-05-25T20:42:28.645Z,6.80
2019-05-25T20:45:01.046Z,11.18
2019-05-25T20:47:34.325Z,7.75
2019-05-25T20:50:07.259Z,12.95
2019-05-25T20:52:40.239Z,5.33
2019-05-25T20:55:14.128Z,7.00
2019-05-25T20:57:46.983Z,7.28
2019-05-25T21:00:23.829Z,8.85
2019-05-25T21:03:05.251Z,6.55
2019-05-25T21:05:28.375Z,9.63
2019-05-25T21:08:00.914Z,8.13
2019-05-25T21:10:33.555Z,9.93
2019-05-25T21:13:06.055Z,6.45
2019-05-25T21:15:38.606Z,9.10
2019-05-25T21:18:11.587Z,7.20
2019-05-25T21:20:44.157Z,6.87
2019-05-25T21:23:16.770Z,8.38
2019-05-25T21:25:49.445Z,7.03
2019-05-25T21:28:22.425Z,6.83
2019-05-25T21:30:54.935Z,9.90
2019-05-25T21:33:27.497Z,8.63
2019-05-25T21:36:08.480Z,9.88
2019-05-25T21:38:34.375Z,9.03
2019-05-25T21:41:06.895Z,11.70
2019-05-25T21:43:39.365Z,12.20
2019-05-25T21:46:11.836Z,8.08
2019-05-25T21:48:44.347Z,13.32
2019-05-25T21:51:16.955Z,8.70
2019-05-25T21:53:49.505Z,8.93
2019-05-25T21:56:22.165Z,9.40
2019-05-25T21:58:54.816Z,12.33
2019-05-25T22:01:27.706Z,9.90
2019-05-25T22:04:02.056Z,9.68
2019-05-25T22:06:34.816Z,14.05
2019-05-25T22:09:08.896Z,8.05
2019-05-25T22:11:41.530Z,8.33
2019-05-25T22:14:14.245Z,8.95
2019-05-25T22:16:46.649Z,8.83
2019-05-25T22:19:19.237Z,9.43
2019-05-25T22:21:51.768Z,10.18
2019-05-25T22:24:25.105Z,9.80
2019-05-25T22:26:57.565Z,9.48
2019-05-25T22:29:30.457Z,9.13
2019-05-25T22:32:03.107Z,9.00
2019-05-25T22:34:36.216Z,9.93
2019-05-25T22:37:10.115Z,9.33
2019-05-25T22:39:42.656Z,9.45
2019-05-25T22:42:15.488Z,11.30
2019-05-25T22:44:48.504Z,9.03
2019-05-25T22:47:21.626Z,8.58
2019-05-25T22:49:54.525Z,6.85
2019-05-25T22:52:27.422Z,10.98
2019-05-25T22:55:00.272Z,8.25
2019-05-25T22:57:33.081Z,7.42
2019-05-25T23:00:07.038Z,9.45
2019-05-25T23:02:41.175Z,7.20
2019-05-25T23:05:14.405Z,6.75
2019-05-25T23:07:47.185Z,9.78
2019-05-25T23:10:20.119Z,8.00
2019-05-25T23:12:52.744Z,14.10
2019-05-25T23:15:25.581Z,6.37
2019-05-25T23:17:59.455Z,7.15
2019-05-25T23:20:32.406Z,7.92
2019-05-25T23:23:05.073Z,7.65
2019-05-25T23:25:37.865Z,7.78
2019-05-25T23:28:10.615Z,8.95
2019-05-25T23:30:43.555Z,12.20
2019-05-25T23:33:17.196Z,10.40
2019-05-25T23:35:50.216Z,12.28
2019-05-25T23:38:22.655Z,11.53
2019-05-25T23:40:55.470Z,9.78
2019-05-25T23:43:28.225Z,8.00
2019-05-25T23:46:01.825Z,10.38
2019-05-25T23:48:34.336Z,10.00
2019-05-25T23:51:07.135Z,8.28
2019-05-25T23:53:39.768Z,12.30
2019-05-25T23:56:12.505Z,10.53
2019-05-25T23:58:45.146Z,10.40
